Data for 05/23/2018

Time Sea-Level Adjusted Pressure Absolute Pressure Temperature Relative Humidity Dew Point   
(mb) (inHg) (mb) (inHg) (C) (F) (%) (C) (F)
00:05 1017 30.03 847 25.01 11.7 53.1 80 8.3 47
00:10 1017 30.03 847 25.01 11.8 53.2 79 8.2 46.8
00:15 1017 30.03 847 25.01 11.8 53.2 79 8.2 46.8
00:20 1017 30.03 847 25.01 11.8 53.2 79 8.3 46.9
00:25 1017 30.03 847 25.01 11.8 53.2 78 8.1 46.6
00:30 1017 30.03 847 25.01 11.8 53.3 78 8.2 46.8
00:35 1017 30.03 847 25.01 11.8 53.3 78 8.2 46.8
00:40 1017 30.03 847 25.01 11.8 53.3 78 8.2 46.8
00:45 1017 30.03 847 25.01 11.9 53.4 78 8.3 46.9
00:50 1017 30.03 846 24.98 11.8 53.3 79 8.3 46.9
00:55 1017 30.03 846 24.98 11.8 53.3 79 8.3 47
01:00 1017 30.03 846 24.98 11.8 53.2 79 8.3 46.9
01:05 1017 30.03 846 24.98 11.8 53.2 79 8.3 47
01:10 1017 30.03 846 24.98 11.8 53.2 80 8.4 47.1
01:15 1017 30.03 846 24.98 11.8 53.2 79 8.3 46.9
01:20 1017 30.03 846 24.98 11.7 53.1 79 8.3 47
01:25 1017 30.03 846 24.98 11.7 53 80 8.4 47
01:30 1017 30.03 846 24.98 11.7 53 80 8.4 47.2
01:35 1017 30.03 846 24.98 11.7 53 80 8.4 47.2
01:40 1017 30.03 846 24.98 11.6 53 80 8.3 47
01:45 1017 30.03 846 24.98 11.6 52.9 80 8.3 46.9
01:50 1017 30.03 846 24.98 11.7 53 80 8.3 46.9
01:55 1017 30.03 846 24.98 11.7 53 79 8.2 46.8
02:00 1017 30.03 846 24.98 11.7 53 79 8.2 46.7
02:05 1017 30.03 846 24.98 11.6 52.9 79 8.2 46.7
02:10 1017 30.03 846 24.98 11.6 52.9 79 8.2 46.7
02:15 1017 30.03 846 24.98 11.5 52.8 79 8.1 46.5
02:20 1017 30.03 846 24.98 11.5 52.7 79 8 46.4
02:25 1017 30.03 846 24.98 11.5 52.8 79 8 46.4
02:30 1017 30.03 846 24.98 11.5 52.7 79 8 46.3
02:35 1017 30.03 846 24.98 11.4 52.6 79 8 46.3
02:40 1016 30 846 24.98 11.4 52.5 79 7.9 46.3
02:45 1016 30 846 24.98 11.5 52.6 78 7.9 46.2
02:50 1016 30 846 24.98 11.5 52.7 79 8 46.3
02:55 1016 30 846 24.98 11.5 52.7 78 7.9 46.1
03:00 1016 30 846 24.98 11.5 52.7 78 7.9 46.1
03:05 1016 30 846 24.98 11.6 52.8 78 7.9 46.3
03:10 1016 30 846 24.98 11.6 52.8 77 7.7 45.9
03:15 1016 30 846 24.98 11.7 53 77 7.7 45.9
03:20 1016 30 846 24.98 11.7 53 77 7.8 46.1
03:25 1016 30 846 24.98 11.6 52.9 79 8.1 46.5
03:30 1017 30.03 846 24.98 11.2 52.2 82 8.2 46.7
03:35 1017 30.03 846 24.98 10.9 51.6 82 8 46.3
03:40 1017 30.03 846 24.98 10.8 51.4 82 7.9 46.3
03:45 1017 30.03 846 24.98 10.8 51.4 82 7.9 46.2
03:50 1016 30 846 24.98 10.8 51.4 82 7.8 46.1
03:55 1016 30 846 24.98 10.8 51.5 82 7.8 46.1
04:00 1016 30 846 24.98 10.8 51.5 81 7.8 46.1
04:05 1016 30 846 24.98 10.8 51.4 82 7.8 46.1
04:10 1016 30 846 24.98 10.7 51.3 82 7.8 46
04:15 1016 30 846 24.98 10.7 51.2 82 7.7 45.9
04:20 1016 30 846 24.98 10.6 51.1 82 7.7 45.9
04:25 1016 30 846 24.98 10.6 51 82 7.7 45.8
04:30 1016 30 846 24.98 10.6 51 82 7.6 45.8
04:35 1016 30 846 24.98 10.6 51 82 7.6 45.7
04:40 1016 30 846 24.98 10.6 51 82 7.7 45.9
04:45 1016 30 846 24.98 10.5 50.9 82 7.6 45.8
04:50 1016 30 846 24.98 10.5 50.8 82 7.6 45.7
04:55 1016 30 846 24.98 10.5 50.9 82 7.5 45.5
05:00 1016 30 846 24.98 10.6 51 81 7.4 45.3
05:05 1016 30 846 24.98 10.6 51.1 81 7.6 45.6
05:10 1016 30 846 24.98 10.5 50.9 82 7.6 45.6
05:15 1016 30 846 24.98 10.5 50.9 81 7.4 45.4
05:20 1016 30 846 24.98 10.5 50.9 82 7.5 45.6
05:25 1016 30 846 24.98 10.4 50.8 82 7.5 45.6
05:30 1016 30 846 24.98 10.4 50.7 82 7.5 45.5
05:35 1016 30 846 24.98 10.5 50.8 81 7.3 45.2
05:40 1016 30 846 24.98 10.6 51 81 7.5 45.5
05:45 1016 30 845 24.95 10.5 50.9 84 7.9 46.2
05:50 1016 30 845 24.95 10.4 50.7 86 8.1 46.7
05:55 1016 30 845 24.95 10.3 50.5 87 8.2 46.7
06:00 1016 30 845 24.95 10.2 50.4 87 8.2 46.8
06:05 1016 30 845 24.95 10.3 50.5 87 8.2 46.7
06:10 1016 30 845 24.95 10.3 50.5 87 8.2 46.7
06:15 1016 30 845 24.95 10.3 50.5 87 8.2 46.7
06:20 1016 30 845 24.95 10.3 50.6 87 8.2 46.8
06:25 1016 30 845 24.95 10.4 50.7 87 8.3 46.9
06:30 1016 30 845 24.95 10.5 50.9 86 8.3 46.9
06:35 1016 30 845 24.95 10.4 50.8 86 8.3 46.9
06:40 1016 30 845 24.95 10.3 50.5 88 8.4 47
06:45 1016 30 845 24.95 10.3 50.5 87 8.3 46.9
06:50 1016 30 845 24.95 10.3 50.5 87 8.2 46.8
06:55 1016 30 845 24.95 10.1 50.2 88 8.2 46.8
07:00 1016 30 845 24.95 10 50 88 8.1 46.7
07:05 1016 30 845 24.95 10 50.1 88 8.2 46.8
07:10 1016 30 845 24.95 10.2 50.3 87 8.1 46.7
07:15 1016 30 845 24.95 10.2 50.3 87 8.1 46.6
07:20 1016 30 845 24.95 10.2 50.3 87 8.2 46.8
07:25 1016 30 845 24.95 10.2 50.3 87 8.2 46.7
07:30 1016 30 845 24.95 10.3 50.5 87 8.2 46.8
07:35 1016 30 845 24.95 10.4 50.7 87 8.2 46.8
07:40 1016 30 845 24.95 10.4 50.6 87 8.4 47.1
07:45 1016 30 845 24.95 10.3 50.6 88 8.4 47.1
07:50 1016 30 845 24.95 10.3 50.6 88 8.4 47.1
07:55 1016 30 845 24.95 10.2 50.4 88 8.3 47
08:00 1016 30 845 24.95 10.3 50.5 89 8.5 47.2
08:05 1016 30 845 24.95 10.5 50.8 88 8.7 47.6
08:10 1016 30 845 24.95 10.6 51.1 88 8.8 47.8
08:15 1016 30 845 24.95 10.8 51.4 89 8.9 48.1
08:20 1016 30 845 24.95 10.8 51.4 88 8.9 48
08:25 1016 30 845 24.95 10.7 51.2 88 8.8 47.8
08:30 1016 30 845 24.95 10.6 51.1 88 8.7 47.7
08:35 1016 30 845 24.95 10.5 50.9 89 8.8 47.8
08:40 1016 30 845 24.95 10.4 50.6 90 8.7 47.7
08:45 1016 30 845 24.95 10.4 50.7 90 8.8 47.8
08:50 1016 30 845 24.95 10.4 50.8 90 8.8 47.9
08:55 1016 30 845 24.95 10.4 50.7 90 8.8 47.8
09:00 1016 30 845 24.95 10.3 50.6 90 8.7 47.7
09:05 1016 30 845 24.95 10.4 50.6 90 8.8 47.8
09:10 1016 30 845 24.95 10.5 50.8 90 8.8 47.9
09:15 1016 30 845 24.95 10.6 51 89 8.9 48
09:20 1016 30 845 24.95 10.6 51 89 8.8 47.9
09:25 1016 30 845 24.95 10.7 51.3 89 9 48.2
09:30 1016 30 845 24.95 10.9 51.5 88 9 48.1
09:35 1016 30 845 24.95 10.9 51.7 87 8.9 48.1
09:40 1016 30 845 24.95 10.9 51.7 86 8.8 47.8
09:45 1016 30 845 24.95 10.7 51.3 87 8.6 47.6
09:50 1016 30 845 24.95 10.7 51.2 87 8.5 47.4
09:55 1016 30 845 24.95 10.7 51.3 87 8.7 47.6
10:00 1016 30 845 24.95 10.8 51.4 87 8.7 47.7
10:05 1016 30 845 24.95 10.7 51.3 87 8.7 47.7
10:10 1016 30 845 24.95 10.8 51.4 87 8.7 47.7
10:15 1016 30 845 24.95 10.7 51.3 87 8.7 47.7
10:20 1016 30 845 24.95 10.7 51.3 88 8.8 47.8
10:25 1016 30 845 24.95 10.8 51.4 87 8.8 47.8
10:30 1016 30 845 24.95 10.8 51.4 88 8.9 48.1
10:35 1016 30 845 24.95 10.8 51.4 88 9 48.1
10:40 1016 30 845 24.95 10.8 51.5 88 9 48.2
10:45 1016 30 845 24.95 10.9 51.6 88 9 48.1
10:50 1016 30 845 24.95 10.9 51.7 87 8.9 47.9
10:55 1016 30 845 24.95 10.9 51.7 87 8.9 48
11:00 1016 30 845 24.95 11 51.8 86 8.8 47.9
11:05 1016 30 845 24.95 11 51.9 86 8.8 47.9
11:10 1016 30 845 24.95 10.9 51.7 88 9 48.1
11:15 1016 30 845 24.95 11 51.7 87 9 48.1
11:20 1016 30 845 24.95 11.1 51.9 86 8.8 47.9
11:25 1016 30 845 24.95 10.8 51.4 87 8.8 47.8
11:30 1016 30 845 24.95 10.6 51 88 8.7 47.7
11:35 1016 30 845 24.95 10.6 51 89 8.8 47.9
11:40 1016 30 845 24.95 10.4 50.7 90 8.7 47.7
11:45 1016 30 845 24.95 10.6 51 90 9 48.2
11:50 1016 30 845 24.95 10.6 51.2 90 9.1 48.4
11:55 1016 30 845 24.95 10.7 51.3 89 9 48.3
12:00 1016 30 845 24.95 10.6 51 90 8.9 48.1
12:05 1016 30 845 24.95 10.4 50.7 90 8.9 48
12:10 1016 30 845 24.95 10.4 50.6 90 8.8 47.9
12:15 1016 30 845 24.95 10.4 50.7 90 8.9 48
12:20 1016 30 845 24.95 10.6 51 90 9.1 48.3
12:25 1016 30 845 24.95 10.9 51.5 90 9.3 48.8
12:30 1016 30 845 24.95 11 51.7 90 9.4 48.8
12:35 1016 30 845 24.95 11.2 52.1 89 9.5 49
12:40 1016 30 845 24.95 11.4 52.5 89 9.7 49.5
12:45 1016 30 845 24.95 11.4 52.5 89 9.6 49.3
12:50 1016 30 845 24.95 11.5 52.7 89 9.7 49.5
12:55 1016 30 845 24.95 11.7 53 87 9.6 49.2
13:00 1016 30 845 24.95 11.7 53 87 9.6 49.3
13:05 1016 30 845 24.95 11.8 53.2 86 9.6 49.2
13:10 1016 30 845 24.95 12 53.5 85 9.6 49.2
13:15 1016 30 845 24.95 12.1 53.7 85 9.6 49.3
13:20 1016 30 845 24.95 12 53.5 82 9 48.2
13:25 1016 30 845 24.95 11.6 52.9 83 8.9 48
13:30 1016 30 845 24.95 11.7 53 83 8.9 48
13:35 1016 30 845 24.95 11.6 53 77 7.8 46
13:40 1016 30 845 24.95 11.5 52.7 76 7.4 45.4
13:45 1016 30 845 24.95 11.6 52.9 81 8.6 47.4
13:50 1016 30 845 24.95 11.8 53.3 83 9 48.2
13:55 1016 30 845 24.95 12.1 53.7 84 9.4 48.9
14:00 1016 30 845 24.95 12.1 53.9 81 9 48.2
14:05 1016 30 845 24.95 12 53.6 81 8.8 47.9
14:10 1015 29.97 845 24.95 11.9 53.4 78 8.1 46.7
14:15 1016 30 845 24.95 11.9 53.5 80 8.7 47.6
14:20 1016 30 845 24.95 12.3 54.1 78 8.5 47.3
14:25 1015 29.97 845 24.95 12.3 54.1 77 8.4 47.2
14:30 1015 29.97 845 24.95 12.3 54.1 78 8.6 47.5
14:35 1015 29.97 845 24.95 12.5 54.5 76 8.5 47.2
14:40 1015 29.97 845 24.95 12.6 54.6 76 8.6 47.4
14:45 1015 29.97 845 24.95 12.7 54.9 77 8.9 48
14:50 1015 29.97 845 24.95 12.6 54.7 75 8.3 47
14:55 1015 29.97 845 24.95 12.6 54.8 76 8.6 47.4
15:00 1015 29.97 845 24.95 12.9 55.2 76 8.8 47.8
15:05 1015 29.97 845 24.95 13.1 55.6 76 8.9 48.1
15:10 1015 29.97 845 24.95 13.2 55.7 73 8.4 47.1
15:15 1015 29.97 845 24.95 13.4 56.2 73 8.7 47.7
15:20 1015 29.97 845 24.95 13.4 56.2 73 8.7 47.7
15:25 1015 29.97 845 24.95 13.1 55.6 73 8.4 47.2
15:30 1015 29.97 845 24.95 13.1 55.5 75 8.7 47.7
15:35 1015 29.97 845 24.95 13.9 57 69 8.3 46.9
15:40 1015 29.97 845 24.95 14.1 57.4 70 8.7 47.7
15:45 1015 29.97 845 24.95 14.1 57.4 69 8.6 47.6
15:50 1015 29.97 845 24.95 13.9 57 71 8.7 47.7
15:55 1015 29.97 845 24.95 13.9 57 67 8 46.5
16:00 1015 29.97 845 24.95 14.1 57.5 68 8.4 47.1
16:05 1015 29.97 845 24.95 14 57.2 67 8.1 46.6
16:10 1015 29.97 845 24.95 14 57.2 63 7.1 44.8
16:15 1015 29.97 845 24.95 13.9 57 65 7.6 45.6
16:20 1016 30 845 24.95 14.2 57.6 68 8.4 47.1
16:25 1016 30 845 24.95 14.4 58 69 8.8 47.8
16:30 1016 30 845 24.95 14.4 57.8 69 8.8 47.9
16:35 1016 30 845 24.95 14.5 58.1 68 8.8 47.9
16:40 1016 30 845 24.95 15.4 59.7 67 9.3 48.7
16:45 1016 30 845 24.95 14.7 58.4 68 9 48.1
16:50 1016 30 845 24.95 14.8 58.6 68 9 48.2
16:55 1016 30 845 24.95 14.7 58.5 66 8.5 47.3
17:00 1016 30 845 24.95 14.5 58.1 69 9 48.2
17:05 1016 30 845 24.95 15.2 59.4 63 8.3 46.9
17:10 1016 30 845 24.95 15.2 59.3 65 8.7 47.6
17:15 1016 30 845 24.95 15 59 67 8.9 48.1
17:20 1016 30 845 24.95 14.3 57.7 68 8.6 47.4
17:25 1016 30 845 24.95 14.4 57.8 71 9.1 48.5
17:30 1016 30 845 24.95 13.8 56.8 70 8.5 47.4
17:35 1016 30 845 24.95 14.2 57.6 66 8.1 46.5
17:40 1016 30 845 24.95 14.7 58.4 64 8.1 46.5
17:45 1016 30 845 24.95 14.8 58.7 65 8.4 47
17:50 1016 30 845 24.95 14.5 58.1 66 8.4 47.1
17:55 1016 30 845 24.95 14.3 57.7 65 7.8 46
18:00 1016 30 845 24.95 14.2 57.5 64 7.5 45.5
18:05 1016 30 845 24.95 14.2 57.6 65 7.7 45.9
18:10 1016 30 845 24.95 14.1 57.3 65 7.7 45.9
18:15 1016 30 845 24.95 13.9 56.9 67 7.9 46.2
18:20 1016 30 845 24.95 13.8 56.9 67 7.7 45.9
18:25 1016 30 845 24.95 13.8 56.9 67 7.8 46.1
18:30 1016 30 845 24.95 14.2 57.5 66 8.1 46.5
18:35 1016 30 845 24.95 14.5 58.1 65 8 46.4
18:40 1016 30 845 24.95 14.9 58.7 64 8.3 46.9
18:45 1016 30 845 24.95 14.5 58.2 67 8.5 47.3
18:50 1016 30 845 24.95 14 57.2 70 8.6 47.5
18:55 1016 30 845 24.95 14.2 57.5 68 8.3 47
19:00 1016 30 845 24.95 14.5 58.2 67 8.5 47.4
19:05 1016 30 845 24.95 14.6 58.4 68 8.8 47.9
19:10 1016 30 845 24.95 14.7 58.4 68 8.8 47.9
19:15 1016 30 845 24.95 14.6 58.3 66 8.5 47.2
19:20 1016 30 845 24.95 14.5 58.1 67 8.5 47.2
19:25 1016 30 845 24.95 14.6 58.2 68 8.8 47.8
19:30 1016 30 845 24.95 14.5 58.1 68 8.7 47.7
19:35 1016 30 845 24.95 14.5 58.1 69 8.9 48
19:40 1016 30 845 24.95 14.5 58 69 8.9 48
19:45 1016 30 845 24.95 14.3 57.8 68 8.6 47.5
19:50 1016 30 845 24.95 14.3 57.7 69 8.6 47.5
19:55 1016 30 845 24.95 14.2 57.5 69 8.6 47.5
20:00 1016 30 845 24.95 14.1 57.3 69 8.6 47.4
20:05 1016 30 845 24.95 13.9 57 70 8.6 47.5
20:10 1016 30 845 24.95 13.8 56.8 70 8.5 47.3
20:15 1016 30 845 24.95 13.7 56.7 71 8.6 47.5
20:20 1016 30 845 24.95 13.6 56.4 75 9.2 48.6
20:25 1016 30 845 24.95 13.1 55.6 77 9.2 48.5
20:30 1016 30 845 24.95 12.9 55.2 78 9.1 48.4
20:35 1016 30 845 24.95 12.7 54.9 79 9.2 48.5
20:40 1016 30 845 24.95 12.6 54.6 79 9.1 48.4
20:45 1016 30 845 24.95 12.5 54.4 80 9.1 48.4
20:50 1016 30 845 24.95 12.4 54.2 80 9.1 48.4
20:55 1016 30 845 24.95 12.3 54.1 80 9 48.2
21:00 1016 30 845 24.95 12.2 53.9 80 8.9 48
21:05 1016 30 845 24.95 12.2 53.9 79 8.7 47.7
21:10 1016 30 845 24.95 12.3 54.1 79 8.8 47.9
21:15 1016 30 845 24.95 12.2 54 81 9.1 48.4
21:20 1016 30 845 24.95 12 53.6 82 9.1 48.3
21:25 1016 30 845 24.95 11.9 53.3 83 9 48.3
21:30 1016 30 845 24.95 11.7 53.1 83 9 48.2
21:35 1016 30 845 24.95 11.6 52.9 83 8.9 47.9
21:40 1016 30 845 24.95 11.6 52.9 83 8.9 48
21:45 1016 30 846 24.98 11.7 53 83 8.8 47.9
21:50 1016 30 846 24.98 11.7 53 82 8.7 47.6
21:55 1016 30 846 24.98 11.6 53 82 8.7 47.6
22:00 1016 30 846 24.98 11.5 52.7 82 8.6 47.5
22:05 1016 30 846 24.98 11.2 52.1 83 8.5 47.3
22:10 1017 30.03 846 24.98 10.9 51.6 84 8.4 47.1
22:15 1017 30.03 846 24.98 10.7 51.3 85 8.3 46.9
22:20 1017 30.03 846 24.98 10.6 51.1 85 8.2 46.8
22:25 1017 30.03 846 24.98 10.6 51.2 85 8.2 46.7
22:30 1017 30.03 846 24.98 10.7 51.2 85 8.2 46.7
22:35 1017 30.03 846 24.98 10.5 50.8 85 8.1 46.6
22:40 1017 30.03 846 24.98 10.3 50.5 86 8.1 46.5
22:45 1017 30.03 846 24.98 10.3 50.5 85 7.9 46.3
22:50 1017 30.03 846 24.98 10.2 50.4 86 7.9 46.2
22:55 1016 30 846 24.98 10.1 50.2 85 7.7 45.9
23:00 1016 30 846 24.98 9.9 49.9 85 7.6 45.7
23:05 1016 30 846 24.98 9.8 49.6 86 7.5 45.5
23:10 1016 30 845 24.95 9.7 49.4 85 7.3 45.2
23:15 1016 30 845 24.95 9.6 49.3 85 7.2 45
23:20 1016 30 845 24.95 9.7 49.4 84 7.1 44.8
23:25 1016 30 845 24.95 9.5 49.1 85 7.1 44.8
23:30 1016 30 845 24.95 9.3 48.8 85 7 44.5
23:35 1016 30 845 24.95 9.2 48.6 85 6.9 44.4
23:40 1016 30 846 24.98 9.3 48.8 84 6.8 44.3
23:45 1017 30.03 846 24.98 9.4 49 83 6.8 44.2
23:50 1017 30.03 846 24.98 9.5 49.1 82 6.7 44
23:55 1017 30.03 846 24.98 9.5 49.1 83 6.8 44.2
24:00 1017 30.03 846 24.98 9.6 49.2 82 6.7 44.1